sensor_id;sensor_type;location;lat;lon;timestamp;temperature;humidity
15749;DHT22;7976;52.526;13.326;2023-04-03T00:00:39;2.40;99.90
15749;DHT22;7976;52.526;13.326;2023-04-03T00:03:07;2.40;99.90
15749;DHT22;7976;52.526;13.326;2023-04-03T00:05:34;2.40;99.90
15749;DHT22;7976;52.526;13.326;2023-04-03T00:08:01;2.40;99.90
15749;DHT22;7976;52.526;13.326;2023-04-03T00:10:30;2.50;99.90
15749;DHT22;7976;52.526;13.326;2023-04-03T00:12:56;2.40;99.90
15749;DHT22;7976;52.526;13.326;2023-04-03T00:15:23;2.40;99.90
15749;DHT22;7976;52.526;13.326;2023-04-03T00:17:50;2.40;99.90
15749;DHT22;7976;52.526;13.326;2023-04-03T00:20:18;2.40;99.90
15749;DHT22;7976;52.526;13.326;2023-04-03T00:22:45;2.40;99.90
15749;DHT22;7976;52.526;13.326;2023-04-03T00:25:12;2.30;99.90
15749;DHT22;7976;52.526;13.326;2023-04-03T00:27:39;2.30;99.90
15749;DHT22;7976;52.526;13.326;2023-04-03T00:30:09;2.30;99.90
15749;DHT22;7976;52.526;13.326;2023-04-03T00:32:39;2.30;99.90
15749;DHT22;7976;52.526;13.326;2023-04-03T00:35:07;2.30;99.90
15749;DHT22;7976;52.526;13.326;2023-04-03T00:37:36;2.30;99.90
15749;DHT22;7976;52.526;13.326;2023-04-03T00:40:04;2.30;99.90
15749;DHT22;7976;52.526;13.326;2023-04-03T00:42:32;2.30;99.90
15749;DHT22;7976;52.526;13.326;2023-04-03T00:48:04;2.20;99.90
15749;DHT22;7976;52.526;13.326;2023-04-03T00:50:35;2.20;99.90
15749;DHT22;7976;52.526;13.326;2023-04-03T00:53:09;2.20;99.90
15749;DHT22;7976;52.526;13.326;2023-04-03T00:55:41;2.20;99.90
15749;DHT22;7976;52.526;13.326;2023-04-03T00:58:10;2.20;99.90
15749;DHT22;7976;52.526;13.326;2023-04-03T01:00:40;2.20;99.90
15749;DHT22;7976;52.526;13.326;2023-04-03T01:03:13;2.20;99.90
15749;DHT22;7976;52.526;13.326;2023-04-03T01:05:40;2.10;99.90
15749;DHT22;7976;52.526;13.326;2023-04-03T01:08:08;2.20;99.90
15749;DHT22;7976;52.526;13.326;2023-04-03T01:10:35;2.10;99.90
15749;DHT22;7976;52.526;13.326;2023-04-03T01:13:18;2.20;99.90
15749;DHT22;7976;52.526;13.326;2023-04-03T01:15:49;2.10;99.90
15749;DHT22;7976;52.526;13.326;2023-04-03T01:18:16;2.10;99.90
15749;DHT22;7976;52.526;13.326;2023-04-03T01:21:21;2.10;99.90
15749;DHT22;7976;52.526;13.326;2023-04-03T01:24:21;2.10;99.90
15749;DHT22;7976;52.526;13.326;2023-04-03T01:26:57;2.10;99.90
15749;DHT22;7976;52.526;13.326;2023-04-03T01:29:24;2.10;99.90
15749;DHT22;7976;52.526;13.326;2023-04-03T01:31:54;2.10;99.90
15749;DHT22;7976;52.526;13.326;2023-04-03T01:34:22;2.10;99.90
15749;DHT22;7976;52.526;13.326;2023-04-03T01:36:51;2.20;99.90
15749;DHT22;7976;52.526;13.326;2023-04-03T01:39:19;2.10;99.90
15749;DHT22;7976;52.526;13.326;2023-04-03T01:41:46;2.10;99.90
15749;DHT22;7976;52.526;13.326;2023-04-03T01:44:20;2.10;99.90
15749;DHT22;7976;52.526;13.326;2023-04-03T01:46:47;2.10;99.90
15749;DHT22;7976;52.526;13.326;2023-04-03T01:49:15;2.00;99.90
15749;DHT22;7976;52.526;13.326;2023-04-03T01:51:42;2.00;99.90
15749;DHT22;7976;52.526;13.326;2023-04-03T01:54:09;2.00;99.90
15749;DHT22;7976;52.526;13.326;2023-04-03T01:56:36;2.00;99.90
15749;DHT22;7976;52.526;13.326;2023-04-03T01:59:04;2.00;99.90
15749;DHT22;7976;52.526;13.326;2023-04-03T02:01:31;2.00;99.90
15749;DHT22;7976;52.526;13.326;2023-04-03T02:03:58;2.00;99.90
15749;DHT22;7976;52.526;13.326;2023-04-03T02:06:27;2.00;99.90
15749;DHT22;7976;52.526;13.326;2023-04-03T02:08:53;2.00;99.90
15749;DHT22;7976;52.526;13.326;2023-04-03T02:11:20;2.00;99.90
15749;DHT22;7976;52.526;13.326;2023-04-03T02:13:47;2.00;99.90
15749;DHT22;7976;52.526;13.326;2023-04-03T02:16:14;2.00;99.90
15749;DHT22;7976;52.526;13.326;2023-04-03T02:18:41;1.90;99.90
15749;DHT22;7976;52.526;13.326;2023-04-03T02:21:07;1.90;99.90
15749;DHT22;7976;52.526;13.326;2023-04-03T02:23:36;1.90;99.90
15749;DHT22;7976;52.526;13.326;2023-04-03T02:26:04;1.90;99.90
15749;DHT22;7976;52.526;13.326;2023-04-03T02:28:32;1.90;99.90
15749;DHT22;7976;52.526;13.326;2023-04-03T02:31:01;2.00;99.90
15749;DHT22;7976;52.526;13.326;2023-04-03T02:33:29;2.00;99.90
15749;DHT22;7976;52.526;13.326;2023-04-03T02:35:56;2.00;99.90
15749;DHT22;7976;52.526;13.326;2023-04-03T02:38:24;1.90;99.90
15749;DHT22;7976;52.526;13.326;2023-04-03T02:40:53;1.90;99.90
15749;DHT22;7976;52.526;13.326;2023-04-03T02:43:26;1.90;99.90
15749;DHT22;7976;52.526;13.326;2023-04-03T02:45:53;1.80;99.90
15749;DHT22;7976;52.526;13.326;2023-04-03T02:48:20;1.80;99.90
15749;DHT22;7976;52.526;13.326;2023-04-03T02:50:48;1.80;99.90
15749;DHT22;7976;52.526;13.326;2023-04-03T02:53:15;1.80;99.90
15749;DHT22;7976;52.526;13.326;2023-04-03T02:55:44;1.70;99.90
15749;DHT22;7976;52.526;13.326;2023-04-03T02:58:12;1.70;99.90
15749;DHT22;7976;52.526;13.326;2023-04-03T03:00:39;1.70;99.90
15749;DHT22;7976;52.526;13.326;2023-04-03T03:03:06;1.60;99.90
15749;DHT22;7976;52.526;13.326;2023-04-03T03:05:33;1.60;99.90
15749;DHT22;7976;52.526;13.326;2023-04-03T03:08:01;1.60;99.90
15749;DHT22;7976;52.526;13.326;2023-04-03T03:10:28;1.60;99.90
15749;DHT22;7976;52.526;13.326;2023-04-03T03:12:55;1.60;99.90
15749;DHT22;7976;52.526;13.326;2023-04-03T03:15:24;1.60;99.90
15749;DHT22;7976;52.526;13.326;2023-04-03T03:17:51;1.60;99.90
15749;DHT22;7976;52.526;13.326;2023-04-03T03:20:19;1.60;99.90
15749;DHT22;7976;52.526;13.326;2023-04-03T03:22:46;1.50;99.90
15749;DHT22;7976;52.526;13.326;2023-04-03T03:25:13;1.50;99.90
15749;DHT22;7976;52.526;13.326;2023-04-03T03:27:40;1.50;99.90
15749;DHT22;7976;52.526;13.326;2023-04-03T03:30:08;1.50;99.90
15749;DHT22;7976;52.526;13.326;2023-04-03T03:32:37;1.50;99.90
15749;DHT22;7976;52.526;13.326;2023-04-03T03:35:04;1.40;99.90
15749;DHT22;7976;52.526;13.326;2023-04-03T03:37:31;1.40;99.90
15749;DHT22;7976;52.526;13.326;2023-04-03T03:39:58;1.40;99.90
15749;DHT22;7976;52.526;13.326;2023-04-03T03:42:25;1.40;99.90
15749;DHT22;7976;52.526;13.326;2023-04-03T03:44:52;1.40;99.90
15749;DHT22;7976;52.526;13.326;2023-04-03T03:47:19;1.40;99.90
15749;DHT22;7976;52.526;13.326;2023-04-03T03:49:47;1.40;99.90
15749;DHT22;7976;52.526;13.326;2023-04-03T03:52:15;1.40;99.90
15749;DHT22;7976;52.526;13.326;2023-04-03T03:54:42;1.30;99.90
15749;DHT22;7976;52.526;13.326;2023-04-03T03:57:10;1.40;99.90
15749;DHT22;7976;52.526;13.326;2023-04-03T03:59:37;1.30;99.90
15749;DHT22;7976;52.526;13.326;2023-04-03T04:02:06;1.30;99.90
15749;DHT22;7976;52.526;13.326;2023-04-03T04:04:33;1.40;99.90
15749;DHT22;7976;52.526;13.326;2023-04-03T04:07:01;1.40;99.90
15749;DHT22;7976;52.526;13.326;2023-04-03T04:09:29;1.30;99.90
15749;DHT22;7976;52.526;13.326;2023-04-03T04:11:56;1.30;99.90
15749;DHT22;7976;52.526;13.326;2023-04-03T04:14:23;1.30;99.90
15749;DHT22;7976;52.526;13.326;2023-04-03T04:16:51;1.20;99.90
15749;DHT22;7976;52.526;13.326;2023-04-03T04:19:22;1.20;99.90
15749;DHT22;7976;52.526;13.326;2023-04-03T04:21:49;1.20;99.90
15749;DHT22;7976;52.526;13.326;2023-04-03T04:24:18;1.20;99.90
15749;DHT22;7976;52.526;13.326;2023-04-03T04:26:47;1.20;99.90
15749;DHT22;7976;52.526;13.326;2023-04-03T04:29:15;1.20;99.90
15749;DHT22;7976;52.526;13.326;2023-04-03T04:31:45;1.20;99.90
15749;DHT22;7976;52.526;13.326;2023-04-03T04:34:13;1.20;99.90
15749;DHT22;7976;52.526;13.326;2023-04-03T04:36:40;1.10;99.90
15749;DHT22;7976;52.526;13.326;2023-04-03T04:39:07;1.20;99.90
15749;DHT22;7976;52.526;13.326;2023-04-03T04:41:36;1.20;99.90
15749;DHT22;7976;52.526;13.326;2023-04-03T04:44:04;1.20;99.90
15749;DHT22;7976;52.526;13.326;2023-04-03T04:46:31;1.20;99.90
15749;DHT22;7976;52.526;13.326;2023-04-03T04:48:59;1.20;99.90
15749;DHT22;7976;52.526;13.326;2023-04-03T04:51:28;1.20;99.90
15749;DHT22;7976;52.526;13.326;2023-04-03T04:53:55;1.30;99.90
15749;DHT22;7976;52.526;13.326;2023-04-03T04:56:23;1.30;99.90
15749;DHT22;7976;52.526;13.326;2023-04-03T04:58:54;1.30;99.90
15749;DHT22;7976;52.526;13.326;2023-04-03T05:01:22;1.30;99.90
15749;DHT22;7976;52.526;13.326;2023-04-03T05:03:59;1.30;99.90
15749;DHT22;7976;52.526;13.326;2023-04-03T05:06:25;1.30;99.90
15749;DHT22;7976;52.526;13.326;2023-04-03T05:08:54;1.30;99.90
15749;DHT22;7976;52.526;13.326;2023-04-03T05:11:22;1.30;99.90
15749;DHT22;7976;52.526;13.326;2023-04-03T05:13:50;1.30;99.90
15749;DHT22;7976;52.526;13.326;2023-04-03T05:16:19;1.40;99.90
15749;DHT22;7976;52.526;13.326;2023-04-03T05:18:46;1.40;99.90
15749;DHT22;7976;52.526;13.326;2023-04-03T05:21:17;1.40;99.90
15749;DHT22;7976;52.526;13.326;2023-04-03T05:23:46;1.40;99.90
15749;DHT22;7976;52.526;13.326;2023-04-03T05:26:14;1.40;99.90
15749;DHT22;7976;52.526;13.326;2023-04-03T05:28:41;1.50;99.90
15749;DHT22;7976;52.526;13.326;2023-04-03T05:31:10;1.50;99.90
15749;DHT22;7976;52.526;13.326;2023-04-03T05:33:38;1.60;99.90
15749;DHT22;7976;52.526;13.326;2023-04-03T05:36:08;1.60;99.90
15749;DHT22;7976;52.526;13.326;2023-04-03T05:38:41;1.60;99.90
15749;DHT22;7976;52.526;13.326;2023-04-03T05:41:08;1.60;99.90
15749;DHT22;7976;52.526;13.326;2023-04-03T05:43:36;1.60;99.90
15749;DHT22;7976;52.526;13.326;2023-04-03T05:46:09;1.60;99.90
15749;DHT22;7976;52.526;13.326;2023-04-03T05:48:38;1.70;99.90
15749;DHT22;7976;52.526;13.326;2023-04-03T05:51:06;1.70;99.90
15749;DHT22;7976;52.526;13.326;2023-04-03T05:53:36;1.70;99.90
15749;DHT22;7976;52.526;13.326;2023-04-03T05:56:05;1.70;99.90
15749;DHT22;7976;52.526;13.326;2023-04-03T05:58:37;1.80;99.90
15749;DHT22;7976;52.526;13.326;2023-04-03T06:01:04;1.80;99.90
15749;DHT22;7976;52.526;13.326;2023-04-03T06:03:32;1.80;99.90
15749;DHT22;7976;52.526;13.326;2023-04-03T06:06:02;1.90;99.90
15749;DHT22;7976;52.526;13.326;2023-04-03T06:08:31;1.90;99.90
15749;DHT22;7976;52.526;13.326;2023-04-03T06:10:58;1.90;99.90
15749;DHT22;7976;52.526;13.326;2023-04-03T06:13:26;2.00;99.90
15749;DHT22;7976;52.526;13.326;2023-04-03T06:15:53;2.00;99.90
15749;DHT22;7976;52.526;13.326;2023-04-03T06:18:21;2.00;99.90
15749;DHT22;7976;52.526;13.326;2023-04-03T06:20:49;2.10;99.90
15749;DHT22;7976;52.526;13.326;2023-04-03T06:23:17;2.10;99.90
15749;DHT22;7976;52.526;13.326;2023-04-03T06:25:44;2.20;99.90
15749;DHT22;7976;52.526;13.326;2023-04-03T06:28:11;2.20;99.90
15749;DHT22;7976;52.526;13.326;2023-04-03T06:30:38;2.30;99.90
15749;DHT22;7976;52.526;13.326;2023-04-03T06:33:05;2.40;99.90
15749;DHT22;7976;52.526;13.326;2023-04-03T06:35:32;2.40;99.90
15749;DHT22;7976;52.526;13.326;2023-04-03T06:38:00;2.50;99.90
15749;DHT22;7976;52.526;13.326;2023-04-03T06:40:30;2.60;99.90
15749;DHT22;7976;52.526;13.326;2023-04-03T06:42:57;2.70;99.90
15749;DHT22;7976;52.526;13.326;2023-04-03T06:45:24;2.70;99.90
15749;DHT22;7976;52.526;13.326;2023-04-03T06:47:51;2.80;99.90
15749;DHT22;7976;52.526;13.326;2023-04-03T06:50:18;2.80;99.90
15749;DHT22;7976;52.526;13.326;2023-04-03T06:52:45;2.90;99.90
15749;DHT22;7976;52.526;13.326;2023-04-03T06:55:12;2.90;99.90
15749;DHT22;7976;52.526;13.326;2023-04-03T06:57:40;3.00;99.90
15749;DHT22;7976;52.526;13.326;2023-04-03T07:00:08;3.10;99.90
15749;DHT22;7976;52.526;13.326;2023-04-03T07:02:36;3.10;99.90
15749;DHT22;7976;52.526;13.326;2023-04-03T07:05:03;3.20;99.90
15749;DHT22;7976;52.526;13.326;2023-04-03T07:07:30;3.30;99.90
15749;DHT22;7976;52.526;13.326;2023-04-03T07:09:59;3.40;99.90
15749;DHT22;7976;52.526;13.326;2023-04-03T07:12:26;3.50;99.90
15749;DHT22;7976;52.526;13.326;2023-04-03T07:14:54;3.50;99.90
15749;DHT22;7976;52.526;13.326;2023-04-03T07:17:21;3.60;99.90
15749;DHT22;7976;52.526;13.326;2023-04-03T07:19:48;3.70;99.90
15749;DHT22;7976;52.526;13.326;2023-04-03T07:22:15;3.80;99.90
15749;DHT22;7976;52.526;13.326;2023-04-03T07:24:43;4.00;99.90
15749;DHT22;7976;52.526;13.326;2023-04-03T07:27:09;4.20;99.90
15749;DHT22;7976;52.526;13.326;2023-04-03T07:29:38;4.20;99.90
15749;DHT22;7976;52.526;13.326;2023-04-03T07:32:06;4.20;99.90
15749;DHT22;7976;52.526;13.326;2023-04-03T07:34:33;4.10;99.90
15749;DHT22;7976;52.526;13.326;2023-04-03T07:37:00;4.20;99.90
15749;DHT22;7976;52.526;13.326;2023-04-03T07:39:27;4.30;99.90
15749;DHT22;7976;52.526;13.326;2023-04-03T07:41:54;4.30;99.90
15749;DHT22;7976;52.526;13.326;2023-04-03T07:44:22;4.40;99.90
15749;DHT22;7976;52.526;13.326;2023-04-03T07:46:49;4.30;99.90
15749;DHT22;7976;52.526;13.326;2023-04-03T07:49:18;4.40;99.90
15749;DHT22;7976;52.526;13.326;2023-04-03T07:51:45;4.50;99.90
15749;DHT22;7976;52.526;13.326;2023-04-03T07:54:12;4.50;99.90
15749;DHT22;7976;52.526;13.326;2023-04-03T07:56:39;4.50;99.90
15749;DHT22;7976;52.526;13.326;2023-04-03T07:59:06;4.60;99.90
15749;DHT22;7976;52.526;13.326;2023-04-03T08:01:33;4.70;99.90
15749;DHT22;7976;52.526;13.326;2023-04-03T08:04:00;4.70;99.90
15749;DHT22;7976;52.526;13.326;2023-04-03T08:06:30;4.60;99.90
15749;DHT22;7976;52.526;13.326;2023-04-03T08:08:58;4.60;99.90
15749;DHT22;7976;52.526;13.326;2023-04-03T08:11:25;4.60;99.90
15749;DHT22;7976;52.526;13.326;2023-04-03T08:13:52;4.50;99.90
15749;DHT22;7976;52.526;13.326;2023-04-03T08:16:22;4.60;99.90
15749;DHT22;7976;52.526;13.326;2023-04-03T08:18:52;4.70;99.90
15749;DHT22;7976;52.526;13.326;2023-04-03T08:21:19;4.80;99.90
15749;DHT22;7976;52.526;13.326;2023-04-03T08:23:50;5.00;99.90
15749;DHT22;7976;52.526;13.326;2023-04-03T08:26:20;5.10;99.90
15749;DHT22;7976;52.526;13.326;2023-04-03T08:28:48;5.20;99.90
15749;DHT22;7976;52.526;13.326;2023-04-03T08:31:16;5.30;99.90
15749;DHT22;7976;52.526;13.326;2023-04-03T08:33:45;5.30;99.90
15749;DHT22;7976;52.526;13.326;2023-04-03T08:36:18;5.30;99.90
15749;DHT22;7976;52.526;13.326;2023-04-03T08:38:48;5.20;99.90
15749;DHT22;7976;52.526;13.326;2023-04-03T08:41:20;5.10;99.90
15749;DHT22;7976;52.526;13.326;2023-04-03T08:44:01;5.10;99.90
15749;DHT22;7976;52.526;13.326;2023-04-03T08:46:43;5.10;99.90
15749;DHT22;7976;52.526;13.326;2023-04-03T08:49:22;5.10;99.90
15749;DHT22;7976;52.526;13.326;2023-04-03T08:51:54;5.00;99.90
15749;DHT22;7976;52.526;13.326;2023-04-03T08:54:28;5.00;99.90
15749;DHT22;7976;52.526;13.326;2023-04-03T08:56:59;5.00;99.90
15749;DHT22;7976;52.526;13.326;2023-04-03T08:59:32;5.00;99.90
15749;DHT22;7976;52.526;13.326;2023-04-03T09:02:12;5.00;99.90
15749;DHT22;7976;52.526;13.326;2023-04-03T09:04:51;5.00;99.90
15749;DHT22;7976;52.526;13.326;2023-04-03T09:07:23;5.00;99.90
15749;DHT22;7976;52.526;13.326;2023-04-03T09:10:00;5.00;99.90
15749;DHT22;7976;52.526;13.326;2023-04-03T09:12:34;5.00;99.90
15749;DHT22;7976;52.526;13.326;2023-04-03T09:15:13;5.10;99.90
15749;DHT22;7976;52.526;13.326;2023-04-03T09:17:53;5.20;99.90
15749;DHT22;7976;52.526;13.326;2023-04-03T09:20:36;5.50;99.90
15749;DHT22;7976;52.526;13.326;2023-04-03T09:23:15;5.90;99.90
15749;DHT22;7976;52.526;13.326;2023-04-03T09:25:49;6.20;99.90
15749;DHT22;7976;52.526;13.326;2023-04-03T09:28:22;6.40;99.90
15749;DHT22;7976;52.526;13.326;2023-04-03T09:30:48;6.40;99.90
15749;DHT22;7976;52.526;13.326;2023-04-03T09:33:16;6.30;99.90
15749;DHT22;7976;52.526;13.326;2023-04-03T09:35:44;6.20;99.90
15749;DHT22;7976;52.526;13.326;2023-04-03T09:38:18;6.20;99.90
15749;DHT22;7976;52.526;13.326;2023-04-03T09:40:50;6.10;99.90
15749;DHT22;7976;52.526;13.326;2023-04-03T09:43:32;6.00;99.90
15749;DHT22;7976;52.526;13.326;2023-04-03T09:46:15;5.90;99.90
15749;DHT22;7976;52.526;13.326;2023-04-03T09:48:50;6.00;99.90
15749;DHT22;7976;52.526;13.326;2023-04-03T09:51:18;6.20;99.90
15749;DHT22;7976;52.526;13.326;2023-04-03T09:53:45;6.50;99.90
15749;DHT22;7976;52.526;13.326;2023-04-03T09:56:23;6.70;99.90
15749;DHT22;7976;52.526;13.326;2023-04-03T09:59:07;6.80;99.90
15749;DHT22;7976;52.526;13.326;2023-04-03T10:01:42;6.80;99.90
15749;DHT22;7976;52.526;13.326;2023-04-03T10:04:22;6.60;99.90
15749;DHT22;7976;52.526;13.326;2023-04-03T10:06:51;6.50;99.90
15749;DHT22;7976;52.526;13.326;2023-04-03T10:09:21;6.30;99.90
15749;DHT22;7976;52.526;13.326;2023-04-03T10:12:04;6.30;99.90
15749;DHT22;7976;52.526;13.326;2023-04-03T10:14:37;6.30;99.90
15749;DHT22;7976;52.526;13.326;2023-04-03T10:17:14;6.20;99.90
15749;DHT22;7976;52.526;13.326;2023-04-03T10:19:53;6.20;99.90
15749;DHT22;7976;52.526;13.326;2023-04-03T10:22:30;6.20;99.90
15749;DHT22;7976;52.526;13.326;2023-04-03T10:25:14;6.30;99.90
15749;DHT22;7976;52.526;13.326;2023-04-03T10:27:53;6.30;99.90
15749;DHT22;7976;52.526;13.326;2023-04-03T10:30:32;6.20;99.90
15749;DHT22;7976;52.526;13.326;2023-04-03T10:33:20;6.10;99.90
15749;DHT22;7976;52.526;13.326;2023-04-03T10:36:06;6.20;99.90
15749;DHT22;7976;52.526;13.326;2023-04-03T10:38:47;6.40;99.90
15749;DHT22;7976;52.526;13.326;2023-04-03T10:41:28;6.60;99.90
15749;DHT22;7976;52.526;13.326;2023-04-03T10:44:14;6.70;99.90
15749;DHT22;7976;52.526;13.326;2023-04-03T10:46:49;6.70;99.90
15749;DHT22;7976;52.526;13.326;2023-04-03T10:49:29;6.60;99.90
15749;DHT22;7976;52.526;13.326;2023-04-03T10:52:12;6.60;99.90
15749;DHT22;7976;52.526;13.326;2023-04-03T10:54:49;6.50;99.90
15749;DHT22;7976;52.526;13.326;2023-04-03T10:57:26;6.40;99.90
15749;DHT22;7976;52.526;13.326;2023-04-03T10:59:59;6.40;99.90
15749;DHT22;7976;52.526;13.326;2023-04-03T11:02:32;6.40;99.90
15749;DHT22;7976;52.526;13.326;2023-04-03T11:05:05;6.50;99.90
15749;DHT22;7976;52.526;13.326;2023-04-03T11:07:45;6.60;99.90
15749;DHT22;7976;52.526;13.326;2023-04-03T11:10:23;6.70;99.90
15749;DHT22;7976;52.526;13.326;2023-04-03T11:13:01;6.80;99.90
15749;DHT22;7976;52.526;13.326;2023-04-03T11:15:37;6.80;99.90
15749;DHT22;7976;52.526;13.326;2023-04-03T11:18:08;6.80;99.90
15749;DHT22;7976;52.526;13.326;2023-04-03T11:20:43;6.70;99.90
15749;DHT22;7976;52.526;13.326;2023-04-03T11:23:21;6.70;99.90
15749;DHT22;7976;52.526;13.326;2023-04-03T11:25:54;6.70;99.90
15749;DHT22;7976;52.526;13.326;2023-04-03T11:28:33;6.70;99.90
15749;DHT22;7976;52.526;13.326;2023-04-03T11:31:09;6.70;99.90
15749;DHT22;7976;52.526;13.326;2023-04-03T11:33:49;6.80;99.90
15749;DHT22;7976;52.526;13.326;2023-04-03T11:36:28;6.80;99.90
15749;DHT22;7976;52.526;13.326;2023-04-03T11:39:02;6.80;99.90
15749;DHT22;7976;52.526;13.326;2023-04-03T11:41:43;6.70;99.90
15749;DHT22;7976;52.526;13.326;2023-04-03T11:44:30;6.70;99.90
15749;DHT22;7976;52.526;13.326;2023-04-03T11:47:03;6.60;99.90
15749;DHT22;7976;52.526;13.326;2023-04-03T11:49:51;6.80;99.90
15749;DHT22;7976;52.526;13.326;2023-04-03T11:55:55;6.80;99.90
15749;DHT22;7976;52.526;13.326;2023-04-03T11:58:29;6.80;99.90
15749;DHT22;7976;52.526;13.326;2023-04-03T12:01:06;6.70;99.90
15749;DHT22;7976;52.526;13.326;2023-04-03T12:04:04;6.60;99.90
15749;DHT22;7976;52.526;13.326;2023-04-03T12:10:14;6.60;99.90
15749;DHT22;7976;52.526;13.326;2023-04-03T12:12:58;6.50;99.90
15749;DHT22;7976;52.526;13.326;2023-04-03T12:15:51;6.50;99.90
15749;DHT22;7976;52.526;13.326;2023-04-03T12:18:40;6.40;99.90
15749;DHT22;7976;52.526;13.326;2023-04-03T12:21:10;6.50;99.90
15749;DHT22;7976;52.526;13.326;2023-04-03T12:24:04;6.60;99.90
15749;DHT22;7976;52.526;13.326;2023-04-03T12:27:01;6.70;99.90
15749;DHT22;7976;52.526;13.326;2023-04-03T12:29:34;6.70;99.90
15749;DHT22;7976;52.526;13.326;2023-04-03T12:32:12;6.70;99.90
15749;DHT22;7976;52.526;13.326;2023-04-03T12:35:04;6.60;99.90
15749;DHT22;7976;52.526;13.326;2023-04-03T12:37:49;6.60;99.90
15749;DHT22;7976;52.526;13.326;2023-04-03T12:40:32;6.60;99.90
15749;DHT22;7976;52.526;13.326;2023-04-03T12:43:20;6.70;99.90
15749;DHT22;7976;52.526;13.326;2023-04-03T12:46:04;6.70;99.90
15749;DHT22;7976;52.526;13.326;2023-04-03T12:48:39;6.80;99.90
15749;DHT22;7976;52.526;13.326;2023-04-03T12:51:18;6.80;99.90
15749;DHT22;7976;52.526;13.326;2023-04-03T12:53:51;6.90;99.90
15749;DHT22;7976;52.526;13.326;2023-04-03T12:56:25;7.00;99.90
15749;DHT22;7976;52.526;13.326;2023-04-03T12:58:55;7.20;99.90
15749;DHT22;7976;52.526;13.326;2023-04-03T13:01:39;7.20;99.90
15749;DHT22;7976;52.526;13.326;2023-04-03T13:04:06;7.20;99.90
15749;DHT22;7976;52.526;13.326;2023-04-03T13:06:39;7.20;99.90
15749;DHT22;7976;52.526;13.326;2023-04-03T13:09:19;7.10;99.90
15749;DHT22;7976;52.526;13.326;2023-04-03T13:11:49;7.00;99.90
15749;DHT22;7976;52.526;13.326;2023-04-03T13:14:19;6.90;99.90
15749;DHT22;7976;52.526;13.326;2023-04-03T13:16:54;6.90;99.90
15749;DHT22;7976;52.526;13.326;2023-04-03T13:19:24;6.70;99.90
15749;DHT22;7976;52.526;13.326;2023-04-03T13:21:59;6.70;99.90
15749;DHT22;7976;52.526;13.326;2023-04-03T13:24:32;6.60;99.90
15749;DHT22;7976;52.526;13.326;2023-04-03T13:27:04;6.60;99.90
15749;DHT22;7976;52.526;13.326;2023-04-03T13:29:49;6.60;99.90
15749;DHT22;7976;52.526;13.326;2023-04-03T13:32:20;6.60;99.90
15749;DHT22;7976;52.526;13.326;2023-04-03T13:34:49;6.60;99.90
15749;DHT22;7976;52.526;13.326;2023-04-03T13:37:21;6.70;99.90
15749;DHT22;7976;52.526;13.326;2023-04-03T13:40:00;6.70;99.90
15749;DHT22;7976;52.526;13.326;2023-04-03T13:42:32;6.70;99.90
15749;DHT22;7976;52.526;13.326;2023-04-03T13:45:20;6.70;99.90
15749;DHT22;7976;52.526;13.326;2023-04-03T13:47:51;6.70;99.90
15749;DHT22;7976;52.526;13.326;2023-04-03T13:50:25;6.80;99.90
15749;DHT22;7976;52.526;13.326;2023-04-03T13:52:55;6.80;99.90
15749;DHT22;7976;52.526;13.326;2023-04-03T13:55:58;6.70;99.90
15749;DHT22;7976;52.526;13.326;2023-04-03T13:58:32;6.60;99.90
15749;DHT22;7976;52.526;13.326;2023-04-03T14:01:08;6.60;99.90
15749;DHT22;7976;52.526;13.326;2023-04-03T14:03:42;6.60;99.90
15749;DHT22;7976;52.526;13.326;2023-04-03T14:06:13;6.60;99.90
15749;DHT22;7976;52.526;13.326;2023-04-03T14:08:45;6.70;99.90
15749;DHT22;7976;52.526;13.326;2023-04-03T14:11:17;6.70;99.90
15749;DHT22;7976;52.526;13.326;2023-04-03T14:13:47;6.60;99.90
15749;DHT22;7976;52.526;13.326;2023-04-03T14:16:18;6.60;99.90
15749;DHT22;7976;52.526;13.326;2023-04-03T14:18:49;6.70;99.90
15749;DHT22;7976;52.526;13.326;2023-04-03T14:21:19;6.70;99.90
15749;DHT22;7976;52.526;13.326;2023-04-03T14:23:46;6.60;99.90
15749;DHT22;7976;52.526;13.326;2023-04-03T14:26:17;6.60;99.90
15749;DHT22;7976;52.526;13.326;2023-04-03T14:28:47;6.60;99.90
15749;DHT22;7976;52.526;13.326;2023-04-03T14:31:16;6.60;99.90
15749;DHT22;7976;52.526;13.326;2023-04-03T14:33:44;6.70;99.90
15749;DHT22;7976;52.526;13.326;2023-04-03T14:36:13;6.60;99.90
15749;DHT22;7976;52.526;13.326;2023-04-03T14:38:45;6.40;99.90
15749;DHT22;7976;52.526;13.326;2023-04-03T14:41:19;6.40;99.90
15749;DHT22;7976;52.526;13.326;2023-04-03T14:43:48;6.50;99.90
15749;DHT22;7976;52.526;13.326;2023-04-03T14:46:19;6.70;99.90
15749;DHT22;7976;52.526;13.326;2023-04-03T14:48:50;6.80;99.90
15749;DHT22;7976;52.526;13.326;2023-04-03T14:51:17;6.90;99.90
15749;DHT22;7976;52.526;13.326;2023-04-03T14:53:44;6.90;99.90
15749;DHT22;7976;52.526;13.326;2023-04-03T14:56:13;6.90;99.90
15749;DHT22;7976;52.526;13.326;2023-04-03T14:58:45;6.90;99.90
15749;DHT22;7976;52.526;13.326;2023-04-03T15:01:16;6.80;99.90
15749;DHT22;7976;52.526;13.326;2023-04-03T15:03:43;6.60;99.90
15749;DHT22;7976;52.526;13.326;2023-04-03T15:06:12;6.60;99.90
15749;DHT22;7976;52.526;13.326;2023-04-03T15:08:40;6.40;99.90
15749;DHT22;7976;52.526;13.326;2023-04-03T15:11:09;6.40;99.90
15749;DHT22;7976;52.526;13.326;2023-04-03T15:13:38;6.30;99.90
15749;DHT22;7976;52.526;13.326;2023-04-03T15:16:14;6.30;99.90
15749;DHT22;7976;52.526;13.326;2023-04-03T15:18:43;6.30;99.90
15749;DHT22;7976;52.526;13.326;2023-04-03T15:21:10;6.30;99.90
15749;DHT22;7976;52.526;13.326;2023-04-03T15:23:37;6.30;99.90
15749;DHT22;7976;52.526;13.326;2023-04-03T15:26:04;6.20;99.90
15749;DHT22;7976;52.526;13.326;2023-04-03T15:28:34;6.10;99.90
15749;DHT22;7976;52.526;13.326;2023-04-03T15:31:03;6.00;99.90
15749;DHT22;7976;52.526;13.326;2023-04-03T15:33:33;5.90;99.90
15749;DHT22;7976;52.526;13.326;2023-04-03T15:36:01;5.90;99.90
15749;DHT22;7976;52.526;13.326;2023-04-03T15:38:29;5.90;99.90
15749;DHT22;7976;52.526;13.326;2023-04-03T15:40:57;5.80;99.90
15749;DHT22;7976;52.526;13.326;2023-04-03T15:43:24;5.80;99.90
15749;DHT22;7976;52.526;13.326;2023-04-03T15:45:52;5.80;99.90
15749;DHT22;7976;52.526;13.326;2023-04-03T15:48:22;5.80;99.90
15749;DHT22;7976;52.526;13.326;2023-04-03T15:50:51;5.80;99.90
15749;DHT22;7976;52.526;13.326;2023-04-03T15:53:18;5.70;99.90
15749;DHT22;7976;52.526;13.326;2023-04-03T15:55:46;5.80;99.90
15749;DHT22;7976;52.526;13.326;2023-04-03T15:58:12;5.70;99.90
15749;DHT22;7976;52.526;13.326;2023-04-03T16:00:40;5.70;99.90
15749;DHT22;7976;52.526;13.326;2023-04-03T16:03:12;5.80;99.90
15749;DHT22;7976;52.526;13.326;2023-04-03T16:05:41;5.70;99.90
15749;DHT22;7976;52.526;13.326;2023-04-03T16:08:10;5.80;99.90
15749;DHT22;7976;52.526;13.326;2023-04-03T16:10:38;5.80;99.90
15749;DHT22;7976;52.526;13.326;2023-04-03T16:13:06;5.70;99.90
15749;DHT22;7976;52.526;13.326;2023-04-03T16:15:34;5.60;99.90
15749;DHT22;7976;52.526;13.326;2023-04-03T16:18:02;5.50;99.90
15749;DHT22;7976;52.526;13.326;2023-04-03T16:20:31;5.40;99.90